createdAt,value
2022-12-15T00:00:19.466Z,71.90
2022-12-15T00:03:04.986Z,71.90
2022-12-15T00:05:50.695Z,72.10
2022-12-15T00:08:35.930Z,72.10
2022-12-15T00:11:21.826Z,72.00
2022-12-15T00:14:07.092Z,71.90
2022-12-15T00:16:52.830Z,71.90
2022-12-15T00:19:37.953Z,71.90
2022-12-15T00:22:25.000Z,72.00
2022-12-15T00:25:10.298Z,71.90
2022-12-15T00:27:55.738Z,71.90
2022-12-15T00:30:41.019Z,72.00
2022-12-15T00:33:29.768Z,72.00
2022-12-15T00:36:17.803Z,72.00
2022-12-15T00:38:45.783Z,71.90
2022-12-15T00:41:16.200Z,71.80
2022-12-15T00:43:43.998Z,71.70
2022-12-15T00:46:29.368Z,71.70
2022-12-15T00:48:57.457Z,71.70
2022-12-15T00:51:43.397Z,71.90
2022-12-15T00:54:29.512Z,72.00
2022-12-15T00:57:15.472Z,72.20
2022-12-15T01:00:01.167Z,72.30
2022-12-15T01:02:46.785Z,72.20
2022-12-15T01:05:32.810Z,72.20
2022-12-15T01:08:18.959Z,72.20
2022-12-15T01:11:04.998Z,72.20
2022-12-15T01:13:50.715Z,72.30
2022-12-15T01:16:36.356Z,72.40
2022-12-15T01:19:22.534Z,73.10
2022-12-15T01:21:49.799Z,72.40
2022-12-15T01:24:17.114Z,72.50
2022-12-15T01:26:44.029Z,72.60
2022-12-15T01:29:11.087Z,72.70
2022-12-15T01:31:38.180Z,72.90
2022-12-15T01:34:05.687Z,72.90
2022-12-15T01:36:32.847Z,72.80
2022-12-15T01:38:59.750Z,72.70
2022-12-15T01:41:27.347Z,72.60
2022-12-15T01:43:54.589Z,72.70
2022-12-15T01:46:23.344Z,72.50
2022-12-15T01:49:27.008Z,72.30
2022-12-15T01:52:03.089Z,72.10
2022-12-15T01:54:43.341Z,71.90
2022-12-15T01:57:18.902Z,71.70
2022-12-15T01:59:54.518Z,71.50
2022-12-15T02:02:27.016Z,71.50
2022-12-15T02:04:57.034Z,71.40
2022-12-15T02:07:24.492Z,71.30
2022-12-15T02:09:55.456Z,71.30
2022-12-15T02:12:55.825Z,71.30
2022-12-15T02:15:44.183Z,71.30
2022-12-15T02:18:52.406Z,71.20
2022-12-15T02:21:40.716Z,71.10
2022-12-15T02:24:55.130Z,71.10
2022-12-15T02:27:50.024Z,71.20
2022-12-15T02:30:41.298Z,71.40
2022-12-15T02:33:25.075Z,71.30
2022-12-15T02:36:28.574Z,71.30
2022-12-15T02:38:55.557Z,71.30
2022-12-15T02:41:42.111Z,71.20
2022-12-15T02:44:11.943Z,71.40
2022-12-15T02:46:47.865Z,71.60
2022-12-15T02:49:32.549Z,71.40
2022-12-15T02:52:13.295Z,71.50
2022-12-15T02:55:34.208Z,71.90
2022-12-15T02:58:20.394Z,72.20
2022-12-15T03:00:58.469Z,72.60
2022-12-15T03:03:29.683Z,72.90
2022-12-15T03:05:57.829Z,73.20
2022-12-15T03:08:24.790Z,73.40
2022-12-15T03:10:54.782Z,73.70
2022-12-15T03:13:23.474Z,73.80
2022-12-15T03:15:51.466Z,74.00
2022-12-15T03:18:18.790Z,74.10
2022-12-15T03:20:45.852Z,74.30
2022-12-15T03:23:12.877Z,74.50
2022-12-15T03:25:39.783Z,74.80
2022-12-15T03:28:06.760Z,75.10
2022-12-15T03:30:33.846Z,75.40
2022-12-15T03:33:00.768Z,75.50
2022-12-15T03:35:27.921Z,75.60
2022-12-15T03:37:54.961Z,75.60
2022-12-15T03:40:21.915Z,75.50
2022-12-15T03:42:48.872Z,75.30
2022-12-15T03:45:28.224Z,75.20
2022-12-15T03:47:56.878Z,75.10
2022-12-15T03:50:28.587Z,75.00
2022-12-15T03:52:59.395Z,75.00
2022-12-15T03:55:31.156Z,74.90
2022-12-15T03:57:59.400Z,74.70
2022-12-15T04:00:27.172Z,74.50
2022-12-15T04:02:54.763Z,74.30
2022-12-15T04:05:29.165Z,73.90
2022-12-15T04:07:58.863Z,73.60
2022-12-15T04:10:34.027Z,73.30
2022-12-15T04:13:08.984Z,73.10
2022-12-15T04:15:38.854Z,72.90
2022-12-15T04:18:12.257Z,72.90
2022-12-15T04:20:40.745Z,73.10
2022-12-15T04:23:08.313Z,72.90
2022-12-15T04:25:55.518Z,72.90
2022-12-15T04:28:41.402Z,73.00
2022-12-15T04:31:41.604Z,73.20
2022-12-15T04:34:38.363Z,73.40
2022-12-15T04:37:26.512Z,73.50
2022-12-15T04:40:12.900Z,73.70
2022-12-15T04:43:05.661Z,73.40
2022-12-15T04:45:51.621Z,73.40
2022-12-15T04:48:37.032Z,73.20
2022-12-15T04:51:23.974Z,73.10
2022-12-15T04:54:09.881Z,73.00
2022-12-15T04:56:55.206Z,72.90
2022-12-15T04:59:40.783Z,72.60
2022-12-15T05:02:26.222Z,72.30
2022-12-15T05:05:12.175Z,72.00
2022-12-15T05:07:57.496Z,71.70
2022-12-15T05:10:43.114Z,71.60
2022-12-15T05:13:28.660Z,71.70
2022-12-15T05:16:14.530Z,71.80
2022-12-15T05:18:59.847Z,72.00
2022-12-15T05:21:45.639Z,72.10
2022-12-15T05:24:30.945Z,72.20
2022-12-15T05:27:16.407Z,72.10
2022-12-15T05:30:01.753Z,72.00
2022-12-15T05:32:33.247Z,71.90
2022-12-15T05:35:01.300Z,72.00
2022-12-15T05:37:28.321Z,72.20
2022-12-15T05:39:55.228Z,72.40
2022-12-15T05:42:22.368Z,72.60
2022-12-15T05:44:49.336Z,72.70
2022-12-15T05:47:16.963Z,73.50
2022-12-15T05:49:44.014Z,73.20
2022-12-15T05:52:11.031Z,73.00
2022-12-15T05:54:38.056Z,73.10
2022-12-15T05:57:04.946Z,73.30
2022-12-15T05:59:32.355Z,73.30
2022-12-15T06:01:59.370Z,73.60
2022-12-15T06:04:26.757Z,73.70
2022-12-15T06:06:53.811Z,73.80
2022-12-15T06:09:20.825Z,73.90
2022-12-15T06:11:48.052Z,74.10
2022-12-15T06:14:15.203Z,74.20
2022-12-15T06:16:50.721Z,74.20
2022-12-15T06:19:19.140Z,74.10
2022-12-15T06:21:46.303Z,74.20
2022-12-15T06:24:13.218Z,74.30
2022-12-15T06:26:41.013Z,74.20
2022-12-15T06:29:12.503Z,74.10
2022-12-15T06:31:41.162Z,74.10
2022-12-15T06:34:12.338Z,74.10
2022-12-15T06:36:39.437Z,74.70
2022-12-15T06:39:11.367Z,74.00
2022-12-15T06:41:38.861Z,73.90
2022-12-15T06:44:06.319Z,73.90
2022-12-15T06:46:35.308Z,73.80
2022-12-15T06:49:02.578Z,73.60
2022-12-15T06:51:29.839Z,73.60
2022-12-15T06:53:57.148Z,73.50
2022-12-15T06:56:34.474Z,73.40
2022-12-15T06:59:04.317Z,73.40
2022-12-15T07:01:32.512Z,73.40
2022-12-15T07:04:01.474Z,74.00
2022-12-15T07:06:36.729Z,73.50
2022-12-15T07:09:08.284Z,73.50
2022-12-15T07:11:35.683Z,73.40
2022-12-15T07:14:03.239Z,73.30
2022-12-15T07:16:31.264Z,73.10
2022-12-15T07:18:58.536Z,73.10
2022-12-15T07:21:25.494Z,73.10
2022-12-15T07:23:55.298Z,73.80
2022-12-15T07:26:24.122Z,73.10
2022-12-15T07:28:51.412Z,73.20
2022-12-15T07:31:18.454Z,73.10
2022-12-15T07:33:47.558Z,73.10
2022-12-15T07:36:14.657Z,73.00
2022-12-15T07:38:41.613Z,73.00
2022-12-15T07:41:10.383Z,73.00
2022-12-15T07:43:38.463Z,72.80
2022-12-15T07:46:06.334Z,72.60
2022-12-15T07:48:33.837Z,72.50
2022-12-15T07:51:10.865Z,72.40
2022-12-15T07:53:40.178Z,72.30
2022-12-15T07:56:09.593Z,72.20
2022-12-15T07:58:37.930Z,72.20
2022-12-15T08:01:08.318Z,72.10
2022-12-15T08:03:37.099Z,72.00
2022-12-15T08:06:11.210Z,72.10
2022-12-15T08:08:39.624Z,72.20
2022-12-15T08:11:11.893Z,72.20
2022-12-15T08:16:28.064Z,72.50
2022-12-15T08:18:57.092Z,72.60
2022-12-15T08:21:24.770Z,72.60
2022-12-15T08:23:51.749Z,72.80
2022-12-15T08:26:23.649Z,72.90
2022-12-15T08:28:54.222Z,73.00
2022-12-15T08:31:23.611Z,73.30
2022-12-15T08:33:51.115Z,74.30
2022-12-15T08:36:20.383Z,75.40
2022-12-15T08:38:48.090Z,76.10
2022-12-15T08:41:19.987Z,76.50
2022-12-15T08:43:51.707Z,76.50
2022-12-15T08:46:22.483Z,76.00
2022-12-15T08:48:50.353Z,76.20
2022-12-15T08:51:17.720Z,74.80
2022-12-15T08:53:45.967Z,74.20
2022-12-15T08:56:19.537Z,74.10
2022-12-15T08:58:48.086Z,74.50
2022-12-15T09:01:23.359Z,73.80
2022-12-15T09:03:56.601Z,72.60
2022-12-15T09:06:33.692Z,72.30
2022-12-15T09:09:07.855Z,71.70
2022-12-15T09:11:35.493Z,70.70
2022-12-15T09:14:03.581Z,70.00
2022-12-15T09:16:30.784Z,69.40
2022-12-15T09:18:59.932Z,68.40
2022-12-15T09:21:30.250Z,66.60
2022-12-15T09:24:03.276Z,65.90
2022-12-15T09:26:32.909Z,64.70
2022-12-15T09:29:01.932Z,64.30
2022-12-15T09:31:32.762Z,63.20
2022-12-15T09:34:01.242Z,61.80
2022-12-15T09:36:30.397Z,60.20
2022-12-15T09:38:57.616Z,58.50
2022-12-15T09:41:31.305Z,59.00
2022-12-15T09:44:07.943Z,57.90
2022-12-15T09:46:56.640Z,57.90
2022-12-15T09:49:47.856Z,57.30
2022-12-15T09:52:20.559Z,56.40
2022-12-15T09:54:47.831Z,56.30
2022-12-15T09:57:55.964Z,56.30
2022-12-15T10:00:38.026Z,53.40
2022-12-15T10:03:30.622Z,54.10
2022-12-15T10:06:22.034Z,53.60
2022-12-15T10:09:01.967Z,54.20
2022-12-15T10:11:51.031Z,54.20
2022-12-15T10:15:06.546Z,52.40
2022-12-15T10:17:56.795Z,51.80
2022-12-15T10:20:28.683Z,50.90
2022-12-15T10:23:02.902Z,51.10
2022-12-15T10:25:33.497Z,50.20
2022-12-15T10:28:34.401Z,49.30
2022-12-15T10:31:15.578Z,48.70
2022-12-15T10:33:47.153Z,48.40
2022-12-15T10:36:17.372Z,48.50
2022-12-15T10:38:50.392Z,48.50
2022-12-15T10:41:21.195Z,48.30
2022-12-15T10:43:53.365Z,48.50
2022-12-15T10:46:27.830Z,49.00
2022-12-15T10:49:23.553Z,48.60
2022-12-15T10:52:00.170Z,48.20
2022-12-15T10:54:45.245Z,48.70
2022-12-15T10:57:19.668Z,48.60
2022-12-15T10:59:46.921Z,48.70
2022-12-15T11:02:24.087Z,48.70
2022-12-15T11:05:01.441Z,48.70
2022-12-15T11:07:52.300Z,48.40
2022-12-15T11:10:51.937Z,47.70
2022-12-15T11:13:22.918Z,47.80
2022-12-15T11:15:56.460Z,48.40
2022-12-15T11:18:45.289Z,47.80
2022-12-15T11:21:25.316Z,47.30
2022-12-15T11:24:20.151Z,48.20
2022-12-15T11:27:12.151Z,46.80
2022-12-15T11:30:08.442Z,46.20
2022-12-15T11:32:38.840Z,45.00
2022-12-15T11:35:14.388Z,46.30
2022-12-15T11:37:42.449Z,46.60
2022-12-15T11:40:38.823Z,46.70
2022-12-15T11:43:43.522Z,46.20
2022-12-15T11:46:20.834Z,46.50
2022-12-15T11:49:25.304Z,46.90
2022-12-15T11:52:34.987Z,45.80
2022-12-15T11:55:41.882Z,45.90
2022-12-15T11:58:39.410Z,45.30
2022-12-15T12:01:34.098Z,44.30
2022-12-15T12:04:46.766Z,44.20
2022-12-15T12:07:41.947Z,44.10
2022-12-15T12:10:36.153Z,43.70
2022-12-15T12:13:44.929Z,43.60
2022-12-15T12:16:34.376Z,44.20
2022-12-15T12:19:16.392Z,44.40
2022-12-15T12:21:51.321Z,45.10
2022-12-15T12:24:28.706Z,45.40
2022-12-15T12:27:07.665Z,45.60
2022-12-15T12:29:53.432Z,46.00
2022-12-15T12:32:50.478Z,46.50
2022-12-15T12:35:33.572Z,46.90
2022-12-15T12:38:04.849Z,47.20
2022-12-15T12:40:40.789Z,48.10
2022-12-15T12:43:14.011Z,49.10
2022-12-15T12:45:52.078Z,49.70
2022-12-15T12:48:37.807Z,49.70
2022-12-15T12:51:34.746Z,49.50
2022-12-15T12:54:02.633Z,48.90
2022-12-15T12:56:42.527Z,49.20
2022-12-15T12:59:31.556Z,49.30
2022-12-15T13:02:20.593Z,48.70
2022-12-15T13:05:05.127Z,48.10
2022-12-15T13:07:41.058Z,48.30
2022-12-15T13:10:08.093Z,47.80
2022-12-15T13:13:00.589Z,47.60
2022-12-15T13:15:27.583Z,46.90
2022-12-15T13:18:25.177Z,46.70
2022-12-15T13:20:57.412Z,46.60
2022-12-15T13:23:26.012Z,47.10
2022-12-15T13:25:55.997Z,47.20
2022-12-15T13:28:44.297Z,47.40
2022-12-15T13:31:18.911Z,48.60
2022-12-15T13:34:01.447Z,48.20
2022-12-15T13:36:40.064Z,48.60
2022-12-15T13:39:13.161Z,49.00
2022-12-15T13:42:23.639Z,49.10
2022-12-15T13:44:45.317Z,49.30
2022-12-15T13:47:19.339Z,49.60
2022-12-15T13:50:02.284Z,50.60
2022-12-15T13:55:39.055Z,51.10
2022-12-15T13:58:17.808Z,51.40
2022-12-15T14:00:54.355Z,51.50
2022-12-15T14:03:21.925Z,51.50
2022-12-15T14:05:55.414Z,51.30
2022-12-15T14:08:26.035Z,51.50
2022-12-15T14:10:56.414Z,51.50
2022-12-15T14:13:26.717Z,51.80
2022-12-15T14:15:56.263Z,52.00
2022-12-15T14:18:28.272Z,52.30
2022-12-15T14:20:55.390Z,52.60
2022-12-15T14:23:26.897Z,53.00
2022-12-15T14:26:04.933Z,53.30
2022-12-15T14:28:36.314Z,53.60
2022-12-15T14:31:07.754Z,54.00
2022-12-15T14:33:40.239Z,54.40
2022-12-15T14:36:11.767Z,54.80
2022-12-15T14:38:51.484Z,55.10
2022-12-15T14:41:28.584Z,55.50
2022-12-15T14:44:36.960Z,55.80
2022-12-15T14:47:07.335Z,56.20
2022-12-15T14:49:43.956Z,56.30
2022-12-15T14:52:42.082Z,56.60
2022-12-15T14:55:37.278Z,57.10
2022-12-15T14:58:32.404Z,57.20
2022-12-15T15:01:02.415Z,57.70
2022-12-15T15:03:09.751Z,50.60
2022-12-15T15:03:39.645Z,57.80
2022-12-15T15:06:12.537Z,58.40
2022-12-15T15:08:53.396Z,58.50
2022-12-15T15:11:29.611Z,59.00
2022-12-15T15:14:01.262Z,59.00
2022-12-15T15:16:28.504Z,59.40
2022-12-15T15:18:57.264Z,59.80
2022-12-15T15:21:27.423Z,60.40
2022-12-15T15:24:23.671Z,60.50
2022-12-15T15:26:52.155Z,61.00
2022-12-15T15:29:41.139Z,61.00
2022-12-15T15:32:25.295Z,61.50
2022-12-15T15:34:52.564Z,61.90
2022-12-15T15:37:25.471Z,62.20
2022-12-15T15:39:54.531Z,62.50
2022-12-15T15:42:25.468Z,62.80
2022-12-15T15:44:57.688Z,62.90
2022-12-15T15:47:26.283Z,63.20
2022-12-15T15:49:55.797Z,63.40
2022-12-15T15:52:23.323Z,63.60
2022-12-15T15:54:51.761Z,63.70
2022-12-15T15:57:19.493Z,63.90
2022-12-15T15:59:47.027Z,64.10
2022-12-15T16:02:15.235Z,64.40
2022-12-15T16:04:43.897Z,64.60
2022-12-15T16:07:24.825Z,64.80
2022-12-15T16:09:53.499Z,65.20
2022-12-15T16:12:52.817Z,65.30
2022-12-15T16:15:29.580Z,65.80
2022-12-15T16:17:56.533Z,65.70
2022-12-15T16:20:27.472Z,66.00
2022-12-15T16:23:00.986Z,66.10
2022-12-15T16:25:41.441Z,66.30
2022-12-15T16:28:21.356Z,66.50
2022-12-15T16:30:48.994Z,66.70
2022-12-15T16:33:16.461Z,66.70
2022-12-15T16:35:45.159Z,67.00
2022-12-15T16:38:29.126Z,67.20
2022-12-15T16:40:58.898Z,67.70
2022-12-15T16:43:32.879Z,67.80
2022-12-15T16:46:03.604Z,68.10
2022-12-15T16:48:37.013Z,68.30
2022-12-15T16:51:08.852Z,68.70
2022-12-15T16:53:39.511Z,68.90
2022-12-15T16:56:08.640Z,68.90
2022-12-15T16:58:36.354Z,69.10
2022-12-15T17:01:03.923Z,69.20
2022-12-15T17:03:31.328Z,69.30
2022-12-15T17:06:06.658Z,69.30
2022-12-15T17:08:41.658Z,69.60
2022-12-15T17:11:21.902Z,69.60
2022-12-15T17:13:54.464Z,69.80
2022-12-15T17:16:24.773Z,69.80
2022-12-15T17:18:52.293Z,69.90
2022-12-15T17:21:28.285Z,70.00
2022-12-15T17:24:00.107Z,70.10
2022-12-15T17:26:31.086Z,70.30
2022-12-15T17:29:14.811Z,71.10
2022-12-15T17:31:41.817Z,70.50
2022-12-15T17:34:33.526Z,70.50
2022-12-15T17:37:06.461Z,70.70
2022-12-15T17:39:35.267Z,70.50
2022-12-15T17:42:03.028Z,70.60
2022-12-15T17:44:36.940Z,70.70
2022-12-15T17:47:07.967Z,70.90
2022-12-15T17:49:37.546Z,71.00
2022-12-15T17:52:24.959Z,71.80
2022-12-15T17:54:52.135Z,71.20
2022-12-15T17:57:19.177Z,71.20
2022-12-15T17:59:46.280Z,70.90
2022-12-15T18:02:14.833Z,70.90
2022-12-15T18:04:43.010Z,71.00
2022-12-15T18:07:20.900Z,71.10
2022-12-15T18:09:49.894Z,71.20
2022-12-15T18:12:27.645Z,71.20
2022-12-15T18:14:55.960Z,71.00
2022-12-15T18:17:23.667Z,71.00
2022-12-15T18:19:50.753Z,71.00
2022-12-15T18:22:23.906Z,70.90
2022-12-15T18:24:53.689Z,70.80
2022-12-15T18:27:27.275Z,70.70
2022-12-15T18:29:55.019Z,70.90
2022-12-15T18:32:26.461Z,71.00
2022-12-15T18:34:54.568Z,71.10
2022-12-15T18:37:24.947Z,71.30
2022-12-15T18:39:52.581Z,71.10
2022-12-15T18:42:21.601Z,71.10
2022-12-15T18:44:53.628Z,71.10
2022-12-15T18:47:23.835Z,71.20
2022-12-15T18:49:50.984Z,71.50
2022-12-15T18:52:23.764Z,71.60
2022-12-15T18:54:53.205Z,71.80
2022-12-15T18:57:29.947Z,71.90
2022-12-15T19:00:17.413Z,72.20
2022-12-15T19:02:44.643Z,72.20
2022-12-15T19:05:27.657Z,72.20
2022-12-15T19:08:20.131Z,72.20
2022-12-15T19:11:31.111Z,72.40
2022-12-15T19:14:01.290Z,72.20
2022-12-15T19:16:49.408Z,72.20
2022-12-15T19:19:34.841Z,72.20
2022-12-15T19:22:21.063Z,72.30
2022-12-15T19:24:56.717Z,72.40
2022-12-15T19:27:26.682Z,72.40
2022-12-15T19:29:55.078Z,72.40
2022-12-15T19:32:23.140Z,72.40
2022-12-15T19:34:50.515Z,72.50
2022-12-15T19:37:26.374Z,72.60
2022-12-15T19:39:56.374Z,72.60
2022-12-15T19:42:35.770Z,72.70
2022-12-15T19:45:22.278Z,72.70
2022-12-15T19:47:49.952Z,72.60
2022-12-15T19:50:23.787Z,72.60
2022-12-15T19:52:55.106Z,72.70
2022-12-15T19:55:29.931Z,72.80
2022-12-15T19:57:56.992Z,72.90
2022-12-15T20:00:27.719Z,73.00
2022-12-15T20:02:55.905Z,73.00
2022-12-15T20:05:24.895Z,73.00
2022-12-15T20:07:54.799Z,72.90
2022-12-15T20:10:31.721Z,72.80
2022-12-15T20:13:01.044Z,72.60
2022-12-15T20:15:28.444Z,72.50
2022-12-15T20:17:58.212Z,72.40
2022-12-15T20:20:27.976Z,72.20
2022-12-15T20:22:59.722Z,72.20
2022-12-15T20:25:31.084Z,72.10
2022-12-15T20:28:00.526Z,72.00
2022-12-15T20:30:32.675Z,71.80
2022-12-15T20:33:03.083Z,71.80
2022-12-15T20:35:33.327Z,71.80
2022-12-15T20:38:04.323Z,71.90
2022-12-15T20:40:32.124Z,71.90
2022-12-15T20:42:59.229Z,72.00
2022-12-15T20:45:27.939Z,72.00
2022-12-15T20:47:55.975Z,71.90
2022-12-15T20:50:24.708Z,72.00
2022-12-15T20:52:52.672Z,72.00
2022-12-15T20:55:22.383Z,72.00
2022-12-15T20:57:49.531Z,72.00
2022-12-15T21:00:20.772Z,71.80
2022-12-15T21:02:49.032Z,71.80
2022-12-15T21:05:23.146Z,71.80
2022-12-15T21:07:50.827Z,71.80
2022-12-15T21:10:20.276Z,71.80
2022-12-15T21:12:49.222Z,71.90
2022-12-15T21:15:20.514Z,71.90
2022-12-15T21:18:03.860Z,71.80
2022-12-15T21:20:41.707Z,71.80
2022-12-15T21:23:28.668Z,71.60
2022-12-15T21:25:58.702Z,71.50
2022-12-15T21:28:25.789Z,71.40
2022-12-15T21:30:53.348Z,71.30
2022-12-15T21:33:20.911Z,71.20
2022-12-15T21:35:48.532Z,71.10
2022-12-15T21:38:29.295Z,71.10
2022-12-15T21:41:03.079Z,71.10
2022-12-15T21:43:34.119Z,71.00
2022-12-15T21:46:04.419Z,70.90
2022-12-15T21:48:50.096Z,70.90
2022-12-15T21:51:17.880Z,70.70
2022-12-15T21:53:46.133Z,70.70
2022-12-15T21:56:21.579Z,70.70
2022-12-15T21:58:52.777Z,70.60
2022-12-15T22:01:28.813Z,70.70
2022-12-15T22:03:58.146Z,70.70
2022-12-15T22:06:28.840Z,70.70
2022-12-15T22:09:00.614Z,70.70
2022-12-15T22:11:29.950Z,70.60
2022-12-15T22:14:03.301Z,70.70
2022-12-15T22:16:30.441Z,70.90
2022-12-15T22:18:58.699Z,71.00
2022-12-15T22:21:27.346Z,71.20
2022-12-15T22:23:54.303Z,71.30
2022-12-15T22:26:29.581Z,71.40
2022-12-15T22:29:00.596Z,71.40
2022-12-15T22:31:28.534Z,71.50
2022-12-15T22:33:55.644Z,71.50
2022-12-15T22:36:22.612Z,71.50
2022-12-15T22:38:49.514Z,71.40
2022-12-15T22:41:24.354Z,71.40
2022-12-15T22:43:56.306Z,71.40
2022-12-15T22:46:25.085Z,71.30
2022-12-15T22:48:54.794Z,71.30
2022-12-15T22:51:21.990Z,71.30
2022-12-15T22:53:48.925Z,71.40
2022-12-15T22:56:27.175Z,71.40
2022-12-15T22:59:01.500Z,71.40
2022-12-15T23:01:29.477Z,71.40
2022-12-15T23:03:56.614Z,71.40
2022-12-15T23:06:23.885Z,71.40
2022-12-15T23:08:55.903Z,71.40
2022-12-15T23:11:39.614Z,71.40
2022-12-15T23:14:12.043Z,71.40
2022-12-15T23:16:39.586Z,71.40
2022-12-15T23:19:08.086Z,71.30
2022-12-15T23:21:36.956Z,71.40
2022-12-15T23:24:03.969Z,71.20
2022-12-15T23:26:30.958Z,71.20
2022-12-15T23:28:57.917Z,71.20
2022-12-15T23:31:25.200Z,71.20
2022-12-15T23:33:52.385Z,71.10
2022-12-15T23:36:19.867Z,71.10
2022-12-15T23:38:46.903Z,71.20
2022-12-15T23:41:18.560Z,71.20
2022-12-15T23:43:45.690Z,71.20
2022-12-15T23:46:12.987Z,71.20
2022-12-15T23:48:43.292Z,71.20
2022-12-15T23:51:19.159Z,71.30
2022-12-15T23:53:47.393Z,71.30
2022-12-15T23:56:17.639Z,71.50
2022-12-15T23:58:47.610Z,71.30
